Time;durP1;ratioP1;P1;durP2;ratioP2;P2;SDS_P1;SDS_P2;PMS_P1;PMS_P2;Temp;Humidity;BMP_temperature;BMP_pressure;BME280_temperature;BME280_humidity;BME280_pressure;Samples;Min_cycle;Max_cycle;Signal;HPM_P1;HPM_P2
2021/12/21 00:00:38;;;;;;;26.97;10.43;;;;;;;;;;5001072;28;20301;-72
2021/12/21 00:03:03;;;;;;;24.20;11.43;;;;;;;;;;4993411;28;20205;-73
2021/12/21 00:05:29;;;;;;;30.43;13.47;;;;;;;;;;4998497;28;20210;-72
2021/12/21 00:07:56;;;;;;;25.07;10.80;;;;;;;;;;5001523;28;20556;-72
2021/12/21 00:10:24;;;;;;;22.63;10.80;;;;;;;;;;5010475;28;20588;-72
2021/12/21 00:15:25;;;;;;;24.83;10.13;;;;;;;;;;5008256;28;20189;-72
2021/12/21 00:18:00;;;;;;;28.37;10.87;;;;;;;;;;4997883;28;20533;-73
2021/12/21 00:20:50;;;;;;;19.10;10.10;;;;;;;;;;4992071;28;20187;-71
2021/12/21 00:23:31;;;;;;;17.70;9.37;;;;;;;;;;4996323;28;20210;-72
2021/12/21 00:25:57;;;;;;;18.47;8.63;;;;;;;;;;4999101;28;20274;-73
2021/12/21 00:28:23;;;;;;;25.47;10.50;;;;;;;;;;4996288;28;20187;-73
2021/12/21 00:30:49;;;;;;;19.23;9.50;;;;;;;;;;4994293;28;20876;-72
2021/12/21 00:33:14;;;;;;;21.40;9.07;;;;;;;;;;4996577;28;20358;-71
2021/12/21 00:35:39;;;;;;;22.93;10.10;;;;;;;;;;4996945;28;20178;-71
2021/12/21 00:38:05;;;;;;;23.20;9.10;;;;;;;;;;4997927;28;20190;-71
2021/12/21 00:40:31;;;;;;;34.53;11.50;;;;;;;;;;4997481;28;20224;-71
2021/12/21 00:42:56;;;;;;;18.77;9.93;;;;;;;;;;4993240;28;20745;-71
2021/12/21 00:45:21;;;;;;;24.10;10.57;;;;;;;;;;4986438;28;20286;-70
2021/12/21 00:47:48;;;;;;;22.50;11.50;;;;;;;;;;4998544;28;20174;-72
2021/12/21 00:50:17;;;;;;;17.07;10.00;;;;;;;;;;4996687;28;20184;-72
2021/12/21 00:52:43;;;;;;;21.03;10.60;;;;;;;;;;4997308;28;20178;-72
2021/12/21 00:55:08;;;;;;;21.03;9.57;;;;;;;;;;5033675;23;20247;-73
2021/12/21 00:57:33;;;;;;;19.47;10.07;;;;;;;;;;5028411;28;20554;-74
2021/12/21 00:59:59;;;;;;;16.67;10.30;;;;;;;;;;5028582;28;20183;-73
2021/12/21 01:02:24;;;;;;;20.43;9.23;;;;;;;;;;5027010;28;20221;-76
2021/12/21 01:04:50;;;;;;;25.43;11.33;;;;;;;;;;5032378;28;20248;-73
2021/12/21 01:07:23;;;;;;;20.67;9.83;;;;;;;;;;5026353;28;20190;-73
2021/12/21 01:20:28;;;;;;;26.47;11.57;;;;;;;;;;5016703;28;20197;-72
2021/12/21 01:26:16;;;;;;;17.80;9.67;;;;;;;;;;5014957;28;20225;-73
2021/12/21 01:28:35;;;;;;;31.13;10.30;;;;;;;;;;5014250;28;20206;-72
2021/12/21 01:35:55;;;;;;;27.17;10.33;;;;;;;;;;5015726;28;20920;-74
2021/12/21 01:38:32;;;;;;;25.23;11.10;;;;;;;;;;5013988;28;20186;-73
2021/12/21 01:41:04;;;;;;;20.47;9.93;;;;;;;;;;5017803;28;20609;-73
2021/12/21 01:43:37;;;;;;;25.47;10.30;;;;;;;;;;5012939;28;20202;-73
2021/12/21 01:51:31;;;;;;;21.97;10.70;;;;;;;;;;5020295;28;20180;-73
2021/12/21 01:53:56;;;;;;;25.20;10.93;;;;;;;;;;5018938;28;20226;-73
2021/12/21 01:56:22;;;;;;;24.47;10.27;;;;;;;;;;5012088;28;20557;-74
2021/12/21 01:58:47;;;;;;;20.23;10.73;;;;;;;;;;5015474;28;20193;-72
2021/12/21 02:01:14;;;;;;;18.53;9.50;;;;;;;;;;5015400;28;20194;-73
2021/12/21 02:03:39;;;;;;;24.03;10.10;;;;;;;;;;5016209;28;20305;-73
2021/12/21 02:06:05;;;;;;;25.83;10.60;;;;;;;;;;5015985;28;20850;-72
2021/12/21 02:08:30;;;;;;;25.43;10.23;;;;;;;;;;5011441;28;20680;-73
2021/12/21 02:10:59;;;;;;;30.77;10.27;;;;;;;;;;5012109;28;20260;-72
2021/12/21 02:13:24;;;;;;;22.13;12.20;;;;;;;;;;5009966;28;20924;-73
2021/12/21 02:15:50;;;;;;;24.07;11.00;;;;;;;;;;5010873;28;20236;-73
2021/12/21 02:20:55;;;;;;;21.43;11.00;;;;;;;;;;5013414;28;20314;-73
2021/12/21 02:23:29;;;;;;;30.90;12.47;;;;;;;;;;5012859;28;20638;-73
2021/12/21 02:30:54;;;;;;;30.30;11.83;;;;;;;;;;5013236;28;20714;-73
2021/12/21 02:33:20;;;;;;;28.03;11.13;;;;;;;;;;5025549;28;20182;-73
2021/12/21 02:35:46;;;;;;;22.57;11.50;;;;;;;;;;5032311;28;20327;-73
2021/12/21 02:38:11;;;;;;;23.57;11.13;;;;;;;;;;5035599;28;20182;-71
2021/12/21 02:40:37;;;;;;;21.37;10.70;;;;;;;;;;5039966;28;20173;-74
2021/12/21 02:43:03;;;;;;;22.47;10.93;;;;;;;;;;5026772;28;20182;-74
2021/12/21 02:45:28;;;;;;;26.57;11.30;;;;;;;;;;5030714;28;20198;-75
2021/12/21 02:47:53;;;;;;;23.57;11.27;;;;;;;;;;5032852;28;20178;-74
2021/12/21 02:50:18;;;;;;;21.33;10.60;;;;;;;;;;5021561;28;20652;-72
2021/12/21 02:52:44;;;;;;;27.23;11.10;;;;;;;;;;5015817;28;20201;-72
2021/12/21 02:55:10;;;;;;;25.33;10.87;;;;;;;;;;5018568;28;20765;-72
2021/12/21 02:57:35;;;;;;;29.17;11.10;;;;;;;;;;5018135;28;20178;-73
2021/12/21 03:00:01;;;;;;;24.43;11.20;;;;;;;;;;5017019;28;20193;-72
2021/12/21 03:02:26;;;;;;;23.87;11.23;;;;;;;;;;5018541;28;20178;-72
2021/12/21 03:04:52;;;;;;;20.37;10.73;;;;;;;;;;5017778;28;20214;-73
2021/12/21 03:10:03;;;;;;;29.47;11.93;;;;;;;;;;5018667;28;20225;-73
2021/12/21 03:13:51;;;;;;;21.90;11.23;;;;;;;;;;5016735;28;20206;-72
2021/12/21 03:15:14;;;;;;;20.90;10.90;;;;;;;;;;5014613;28;20198;-73
2021/12/21 03:17:39;;;;;;;26.30;11.27;;;;;;;;;;5021007;28;20174;-72
2021/12/21 03:20:05;;;;;;;22.50;11.47;;;;;;;;;;5017614;28;20197;-73
2021/12/21 03:22:30;;;;;;;27.90;10.83;;;;;;;;;;5017395;28;20194;-73
2021/12/21 03:24:55;;;;;;;20.07;11.60;;;;;;;;;;5023659;28;20210;-73
2021/12/21 03:27:20;;;;;;;23.93;11.83;;;;;;;;;;5016387;28;20318;-73
2021/12/21 03:29:46;;;;;;;27.53;11.67;;;;;;;;;;5017085;28;20716;-73
2021/12/21 03:32:11;;;;;;;26.57;11.53;;;;;;;;;;5015639;28;21116;-73
2021/12/21 03:34:36;;;;;;;24.33;10.93;;;;;;;;;;5030805;28;20625;-72
2021/12/21 03:37:04;;;;;;;30.60;10.50;;;;;;;;;;5031562;28;20174;-73
2021/12/21 03:39:29;;;;;;;24.73;11.87;;;;;;;;;;5019707;28;20182;-72
2021/12/21 03:41:57;;;;;;;26.17;11.27;;;;;;;;;;5017151;28;20190;-73
2021/12/21 03:44:23;;;;;;;24.77;11.07;;;;;;;;;;5016521;28;20280;-73
2021/12/21 03:46:52;;;;;;;21.80;12.73;;;;;;;;;;5017735;28;20207;-73
2021/12/21 03:51:50;;;;;;;23.63;12.27;;;;;;;;;;5016935;28;20217;-73
2021/12/21 03:54:15;;;;;;;28.90;12.17;;;;;;;;;;5017325;28;20217;-73
2021/12/21 03:56:41;;;;;;;28.93;13.00;;;;;;;;;;5017890;28;20196;-73
2021/12/21 03:59:07;;;;;;;26.87;12.80;;;;;;;;;;5018882;28;20184;-73
2021/12/21 04:01:32;;;;;;;27.63;12.97;;;;;;;;;;5016744;28;20182;-72
2021/12/21 04:03:57;;;;;;;29.20;14.13;;;;;;;;;;5016035;28;20288;-73
2021/12/21 04:06:23;;;;;;;25.30;13.50;;;;;;;;;;5015818;28;20642;-73
2021/12/21 04:08:48;;;;;;;27.87;14.77;;;;;;;;;;5017810;28;20180;-73
2021/12/21 04:11:13;;;;;;;32.70;13.83;;;;;;;;;;5015509;28;20284;-73
2021/12/21 04:13:38;;;;;;;33.20;14.23;;;;;;;;;;5016645;28;20202;-73
2021/12/21 04:16:05;;;;;;;29.10;13.80;;;;;;;;;;5018977;28;20659;-72
2021/12/21 04:18:35;;;;;;;23.80;13.20;;;;;;;;;;5017591;28;20651;-73
2021/12/21 04:21:00;;;;;;;28.00;13.50;;;;;;;;;;5017766;28;20182;-72
2021/12/21 04:23:25;;;;;;;24.17;11.37;;;;;;;;;;5016019;28;20689;-72
2021/12/21 04:25:50;;;;;;;27.93;12.63;;;;;;;;;;5015742;28;20240;-73
2021/12/21 04:28:15;;;;;;;25.23;12.00;;;;;;;;;;5016306;28;20548;-73
2021/12/21 04:30:41;;;;;;;25.83;11.77;;;;;;;;;;5013820;28;20193;-72
2021/12/21 04:33:06;;;;;;;20.50;12.33;;;;;;;;;;5014751;28;20174;-73
2021/12/21 04:35:31;;;;;;;22.10;11.67;;;;;;;;;;5016004;28;20675;-73
2021/12/21 04:38:01;;;;;;;28.23;13.90;;;;;;;;;;5011448;28;20341;-73
2021/12/21 04:40:39;;;;;;;27.37;12.27;;;;;;;;;;5017326;28;21446;-73
2021/12/21 04:43:05;;;;;;;26.07;12.87;;;;;;;;;;5020525;28;20261;-73
2021/12/21 04:45:30;;;;;;;26.37;12.83;;;;;;;;;;5019775;28;20210;-71
2021/12/21 04:47:55;;;;;;;25.47;12.07;;;;;;;;;;5017856;28;20181;-72
2021/12/21 04:50:21;;;;;;;22.97;11.10;;;;;;;;;;5015349;28;20801;-74
2021/12/21 04:52:46;;;;;;;27.17;11.90;;;;;;;;;;5017375;28;20210;-74
2021/12/21 04:55:11;;;;;;;22.60;11.57;;;;;;;;;;5016707;28;20229;-72
2021/12/21 04:57:36;;;;;;;23.90;12.80;;;;;;;;;;5008237;28;20186;-73
2021/12/21 05:00:03;;;;;;;24.47;11.20;;;;;;;;;;5015737;28;20184;-74
2021/12/21 05:02:28;;;;;;;20.73;11.23;;;;;;;;;;5015260;28;20186;-73
2021/12/21 05:04:53;;;;;;;22.57;12.10;;;;;;;;;;5016466;28;20255;-77
2021/12/21 05:07:23;;;;;;;27.13;12.43;;;;;;;;;;5016663;28;20303;-74
2021/12/21 05:09:55;;;;;;;25.57;11.80;;;;;;;;;;5015937;28;20670;-72
2021/12/21 05:12:20;;;;;;;22.40;11.20;;;;;;;;;;5014726;28;20219;-72
2021/12/21 05:14:45;;;;;;;27.37;11.87;;;;;;;;;;5014650;28;20202;-72
2021/12/21 05:17:11;;;;;;;26.17;13.17;;;;;;;;;;5015703;28;20251;-74
2021/12/21 05:19:36;;;;;;;19.37;12.23;;;;;;;;;;5018944;28;20201;-72
2021/12/21 05:22:01;;;;;;;24.97;12.37;;;;;;;;;;5016770;28;20197;-72
2021/12/21 05:24:27;;;;;;;22.03;12.13;;;;;;;;;;5014799;28;20211;-73
2021/12/21 05:26:52;;;;;;;21.20;11.60;;;;;;;;;;5015851;28;20260;-73
2021/12/21 05:29:17;;;;;;;23.73;12.00;;;;;;;;;;5014009;28;21279;-73
2021/12/21 05:31:43;;;;;;;24.20;11.67;;;;;;;;;;5012967;28;20214;-73
2021/12/21 05:34:08;;;;;;;21.47;12.37;;;;;;;;;;5012682;28;20981;-73
2021/12/21 05:36:33;;;;;;;22.03;10.90;;;;;;;;;;5016568;28;20610;-73
2021/12/21 05:39:03;;;;;;;21.03;11.53;;;;;;;;;;5016667;28;20190;-72
2021/12/21 05:41:40;;;;;;;26.47;12.90;;;;;;;;;;5015985;28;20761;-73
2021/12/21 05:44:06;;;;;;;25.27;11.47;;;;;;;;;;5015219;28;20780;-73
2021/12/21 05:46:31;;;;;;;23.00;11.90;;;;;;;;;;5016455;28;20264;-73
2021/12/21 05:48:56;;;;;;;23.83;11.83;;;;;;;;;;5018740;28;20201;-74
2021/12/21 05:51:21;;;;;;;19.43;11.80;;;;;;;;;;5020591;28;20692;-74
2021/12/21 05:53:48;;;;;;;22.33;12.50;;;;;;;;;;5014258;28;20203;-74
2021/12/21 05:56:14;;;;;;;24.00;11.80;;;;;;;;;;5015833;28;20185;-74
2021/12/21 05:58:39;;;;;;;29.47;11.67;;;;;;;;;;5015022;28;20177;-71
2021/12/21 06:01:04;;;;;;;22.23;12.53;;;;;;;;;;5016189;28;20277;-73
2021/12/21 06:03:29;;;;;;;23.60;12.87;;;;;;;;;;5015643;28;20308;-73
2021/12/21 06:05:54;;;;;;;25.27;13.10;;;;;;;;;;5025574;28;20187;-71
2021/12/21 06:08:22;;;;;;;19.83;11.23;;;;;;;;;;5022492;28;20610;-74
2021/12/21 06:10:50;;;;;;;22.23;13.17;;;;;;;;;;5012215;28;20232;-74
2021/12/21 06:26:16;;;;;;;42.50;21.03;;;;;;;;;;5015168;28;20213;-72
2021/12/21 06:28:42;;;;;;;43.50;20.90;;;;;;;;;;5016187;28;20742;-72
2021/12/21 06:31:07;;;;;;;48.20;24.00;;;;;;;;;;5015047;28;20352;-72
2021/12/21 06:33:33;;;;;;;43.53;21.77;;;;;;;;;;5015978;28;20333;-72
2021/12/21 06:35:58;;;;;;;44.77;21.70;;;;;;;;;;5015564;28;20946;-72
2021/12/21 06:38:24;;;;;;;36.70;20.67;;;;;;;;;;5012135;28;20264;-72
2021/12/21 06:40:49;;;;;;;34.30;19.00;;;;;;;;;;5017260;28;20536;-72
2021/12/21 06:43:16;;;;;;;38.90;20.43;;;;;;;;;;5014911;28;20260;-73
2021/12/21 06:45:50;;;;;;;36.40;18.57;;;;;;;;;;5013797;28;20174;-73
2021/12/21 06:51:16;;;;;;;33.20;16.70;;;;;;;;;;5020416;28;20212;-73
2021/12/21 06:56:14;;;;;;;33.20;18.90;;;;;;;;;;5044769;28;20220;-69
2021/12/21 06:58:39;;;;;;;36.47;20.57;;;;;;;;;;5047719;28;20189;-68
2021/12/21 07:01:05;;;;;;;39.10;18.83;;;;;;;;;;5047723;28;20188;-69
2021/12/21 07:03:30;;;;;;;36.13;19.13;;;;;;;;;;5042761;28;20208;-69
2021/12/21 07:05:59;;;;;;;36.37;22.63;;;;;;;;;;5030788;28;20694;-70
2021/12/21 07:08:28;;;;;;;41.27;24.30;;;;;;;;;;5046799;28;20169;-70
2021/12/21 07:11:05;;;;;;;51.23;25.73;;;;;;;;;;5046746;28;20356;-69
2021/12/21 07:18:58;;;;;;;58.17;29.83;;;;;;;;;;5048511;28;20586;-70
2021/12/21 07:21:23;;;;;;;58.67;30.53;;;;;;;;;;5047272;28;21827;-71
2021/12/21 07:23:51;;;;;;;66.40;29.73;;;;;;;;;;5031376;28;20275;-67
2021/12/21 07:26:16;;;;;;;60.40;29.33;;;;;;;;;;5048381;28;20266;-69
2021/12/21 07:28:42;;;;;;;52.00;25.87;;;;;;;;;;5051352;28;20264;-67
2021/12/21 07:31:07;;;;;;;41.40;22.20;;;;;;;;;;5051187;28;20291;-69
2021/12/21 07:33:33;;;;;;;38.03;20.07;;;;;;;;;;5049794;28;21546;-69
2021/12/21 07:35:59;;;;;;;43.43;19.77;;;;;;;;;;5049933;28;20251;-67
2021/12/21 07:38:26;;;;;;;36.80;19.00;;;;;;;;;;5050512;28;20176;-67
2021/12/21 07:40:51;;;;;;;33.40;17.30;;;;;;;;;;5036685;28;20544;-68
2021/12/21 07:43:16;;;;;;;37.20;17.50;;;;;;;;;;5050332;28;20169;-67
2021/12/21 07:45:41;;;;;;;40.00;18.07;;;;;;;;;;5048122;28;20204;-67
2021/12/21 07:48:07;;;;;;;30.97;18.10;;;;;;;;;;5052920;28;20181;-68
2021/12/21 07:50:32;;;;;;;32.27;16.37;;;;;;;;;;5051856;28;21157;-69
2021/12/21 07:53:00;;;;;;;36.23;16.43;;;;;;;;;;5051034;28;21339;-68
2021/12/21 07:55:25;;;;;;;32.23;15.40;;;;;;;;;;5049917;28;20212;-67
2021/12/21 07:57:50;;;;;;;26.33;16.17;;;;;;;;;;5049028;28;20544;-67
2021/12/21 08:00:16;;;;;;;29.27;15.50;;;;;;;;;;5049659;28;20677;-69
2021/12/21 08:02:41;;;;;;;31.67;17.80;;;;;;;;;;5050404;28;20173;-68
2021/12/21 08:05:07;;;;;;;34.13;18.17;;;;;;;;;;5050700;28;20210;-69
2021/12/21 08:07:37;;;;;;;34.10;16.00;;;;;;;;;;5032799;28;20181;-67
2021/12/21 08:10:17;;;;;;;28.10;16.90;;;;;;;;;;5050525;28;20258;-67
2021/12/21 08:12:42;;;;;;;38.83;16.67;;;;;;;;;;5050127;28;20927;-68
2021/12/21 08:15:08;;;;;;;30.67;15.43;;;;;;;;;;5052573;28;20300;-68
2021/12/21 08:17:33;;;;;;;32.63;17.63;;;;;;;;;;5050013;28;20181;-68
2021/12/21 08:19:58;;;;;;;33.63;17.63;;;;;;;;;;5053610;28;20183;-68
2021/12/21 08:22:24;;;;;;;32.33;16.20;;;;;;;;;;5049514;28;20218;-69
2021/12/21 08:24:49;;;;;;;33.00;17.60;;;;;;;;;;5049521;28;20278;-68
2021/12/21 08:27:14;;;;;;;26.37;15.70;;;;;;;;;;5031168;28;20686;-68
2021/12/21 08:29:39;;;;;;;27.63;15.87;;;;;;;;;;5048738;28;20676;-68
2021/12/21 08:32:05;;;;;;;29.33;15.73;;;;;;;;;;5032165;28;20216;-69
2021/12/21 08:34:30;;;;;;;27.53;15.83;;;;;;;;;;5046351;28;20785;-68
2021/12/21 08:36:55;;;;;;;37.17;17.10;;;;;;;;;;5031379;28;20633;-68
2021/12/21 08:39:23;;;;;;;30.73;16.70;;;;;;;;;;5052683;28;20215;-68
2021/12/21 08:41:55;;;;;;;33.13;16.80;;;;;;;;;;5030568;28;21027;-69
2021/12/21 08:44:21;;;;;;;40.30;18.37;;;;;;;;;;5031333;28;20274;-67
2021/12/21 08:46:47;;;;;;;33.73;17.67;;;;;;;;;;5055026;28;20280;-69
2021/12/21 08:49:12;;;;;;;33.13;18.33;;;;;;;;;;5050031;28;20186;-68
2021/12/21 08:51:37;;;;;;;31.07;17.83;;;;;;;;;;5048750;28;20296;-68
2021/12/21 08:54:02;;;;;;;38.63;18.17;;;;;;;;;;5031745;28;21549;-68
2021/12/21 08:56:27;;;;;;;37.83;19.13;;;;;;;;;;5048735;28;20181;-69
2021/12/21 08:58:53;;;;;;;36.37;18.70;;;;;;;;;;5034185;28;20410;-68
2021/12/21 09:01:18;;;;;;;37.00;19.27;;;;;;;;;;5049795;28;20199;-68
2021/12/21 09:03:44;;;;;;;32.37;18.53;;;;;;;;;;5032635;28;20182;-67
2021/12/21 09:06:09;;;;;;;41.43;20.00;;;;;;;;;;5048450;28;20185;-69
2021/12/21 09:08:34;;;;;;;32.80;19.73;;;;;;;;;;5048774;28;20269;-68
2021/12/21 09:11:03;;;;;;;43.73;19.93;;;;;;;;;;5044567;28;21169;-69
2021/12/21 09:13:29;;;;;;;41.17;19.63;;;;;;;;;;5043159;28;20189;-68
2021/12/21 09:15:55;;;;;;;39.93;21.70;;;;;;;;;;5048191;28;20205;-68
2021/12/21 09:18:20;;;;;;;42.50;21.27;;;;;;;;;;5049919;28;20185;-68
2021/12/21 09:20:45;;;;;;;36.93;22.63;;;;;;;;;;5048065;28;20184;-69
2021/12/21 09:23:11;;;;;;;37.70;23.93;;;;;;;;;;5047540;28;20177;-69
2021/12/21 09:25:37;;;;;;;43.97;24.33;;;;;;;;;;5045839;28;20434;-69
2021/12/21 09:28:02;;;;;;;37.53;24.40;;;;;;;;;;5045812;28;20737;-69
2021/12/21 09:30:28;;;;;;;42.97;23.07;;;;;;;;;;5051294;28;20499;-68
2021/12/21 09:32:54;;;;;;;34.13;21.83;;;;;;;;;;5063772;28;20218;-67
2021/12/21 09:35:19;;;;;;;34.70;21.83;;;;;;;;;;5058700;28;20193;-69
2021/12/21 09:37:45;;;;;;;30.13;19.80;;;;;;;;;;5029070;28;20177;-69
2021/12/21 09:40:12;;;;;;;35.27;18.93;;;;;;;;;;5034997;28;20184;-67
2021/12/21 09:42:38;;;;;;;30.53;18.93;;;;;;;;;;5047199;28;20599;-68
2021/12/21 09:45:03;;;;;;;23.80;16.67;;;;;;;;;;5048336;28;20200;-68
2021/12/21 09:47:28;;;;;;;24.50;17.27;;;;;;;;;;5046472;28;20192;-69
2021/12/21 09:49:54;;;;;;;28.80;17.43;;;;;;;;;;5060524;28;20179;-69
2021/12/21 09:52:21;;;;;;;23.97;15.97;;;;;;;;;;5046414;28;20298;-68
2021/12/21 09:54:46;;;;;;;25.53;15.93;;;;;;;;;;5048950;28;20319;-69
2021/12/21 09:57:16;;;;;;;27.63;15.43;;;;;;;;;;5043830;28;20354;-69
2021/12/21 09:59:41;;;;;;;19.63;15.43;;;;;;;;;;5045511;28;20179;-69
2021/12/21 10:02:07;;;;;;;22.77;14.53;;;;;;;;;;5046618;28;20646;-68
2021/12/21 10:04:43;;;;;;;17.90;13.90;;;;;;;;;;5048429;28;20211;-69
2021/12/21 10:07:09;;;;;;;21.87;15.13;;;;;;;;;;5028310;28;20184;-69
2021/12/21 10:09:36;;;;;;;21.13;14.90;;;;;;;;;;5030537;28;20178;-68
2021/12/21 10:12:01;;;;;;;22.57;15.37;;;;;;;;;;5031095;28;20212;-69
2021/12/21 10:14:27;;;;;;;20.53;14.53;;;;;;;;;;5029715;28;20219;-68
2021/12/21 10:17:03;;;;;;;22.80;15.20;;;;;;;;;;5027673;28;21788;-69
2021/12/21 10:19:28;;;;;;;22.10;14.17;;;;;;;;;;5058302;28;20215;-69
2021/12/21 10:21:53;;;;;;;18.93;13.63;;;;;;;;;;5049359;28;20268;-69
2021/12/21 10:24:26;;;;;;;22.07;14.10;;;;;;;;;;5049188;28;20201;-70
2021/12/21 10:26:52;;;;;;;19.63;12.53;;;;;;;;;;5049083;28;20653;-69
2021/12/21 10:29:17;;;;;;;19.50;12.90;;;;;;;;;;5046819;28;20169;-69
2021/12/21 10:31:45;;;;;;;18.97;12.33;;;;;;;;;;5046147;28;20265;-69
2021/12/21 10:34:11;;;;;;;21.23;13.40;;;;;;;;;;5048317;28;20196;-70
2021/12/21 10:36:49;;;;;;;19.10;12.00;;;;;;;;;;5032744;28;20272;-70
2021/12/21 10:39:26;;;;;;;17.73;12.27;;;;;;;;;;5032034;28;20181;-68
2021/12/21 10:41:55;;;;;;;19.17;12.17;;;;;;;;;;5046812;28;20188;-69
2021/12/21 10:44:20;;;;;;;21.17;12.20;;;;;;;;;;5046890;28;20215;-70
2021/12/21 10:46:47;;;;;;;16.60;10.80;;;;;;;;;;5048096;28;20173;-70
2021/12/21 10:49:15;;;;;;;14.67;10.87;;;;;;;;;;5049117;28;20177;-69
2021/12/21 10:51:53;;;;;;;16.70;11.20;;;;;;;;;;5045725;28;20771;-70
2021/12/21 10:54:27;;;;;;;15.87;10.73;;;;;;;;;;5019165;28;20200;-69
2021/12/21 10:56:57;;;;;;;14.90;10.10;;;;;;;;;;5031598;28;20684;-68
2021/12/21 10:59:27;;;;;;;15.70;10.30;;;;;;;;;;5050045;28;20193;-69
2021/12/21 11:01:53;;;;;;;18.50;11.47;;;;;;;;;;5048967;28;20253;-67
2021/12/21 11:04:21;;;;;;;17.00;11.47;;;;;;;;;;5053189;28;20646;-68
2021/12/21 11:06:49;;;;;;;16.57;10.53;;;;;;;;;;5034226;28;20185;-69
2021/12/21 11:09:14;;;;;;;15.77;11.33;;;;;;;;;;5036854;28;20193;-68
2021/12/21 11:11:47;;;;;;;17.13;12.20;;;;;;;;;;5052527;28;20212;-70
2021/12/21 11:14:17;;;;;;;17.73;11.37;;;;;;;;;;5051062;28;20205;-69
2021/12/21 11:16:52;;;;;;;14.47;9.90;;;;;;;;;;5052435;28;20266;-69
2021/12/21 11:19:20;;;;;;;18.63;11.43;;;;;;;;;;5061019;28;20173;-69
2021/12/21 11:21:45;;;;;;;16.80;11.23;;;;;;;;;;5058036;28;20185;-68
2021/12/21 11:24:15;;;;;;;19.07;11.53;;;;;;;;;;5057290;28;20211;-70
2021/12/21 11:26:41;;;;;;;16.27;11.70;;;;;;;;;;5050796;28;20219;-69
2021/12/21 11:29:07;;;;;;;17.87;11.30;;;;;;;;;;5054568;28;20717;-68
2021/12/21 11:31:36;;;;;;;20.73;11.97;;;;;;;;;;5035357;28;20208;-69
2021/12/21 11:34:01;;;;;;;16.43;10.80;;;;;;;;;;5053912;28;20208;-69
2021/12/21 11:39:12;;;;;;;17.33;10.73;;;;;;;;;;5057256;28;20229;-69
2021/12/21 11:41:40;;;;;;;18.53;11.27;;;;;;;;;;5052619;28;20761;-71
2021/12/21 11:44:18;;;;;;;22.07;11.93;;;;;;;;;;5053015;28;20207;-70
2021/12/21 11:46:51;;;;;;;21.93;11.67;;;;;;;;;;5049283;28;20196;-69
2021/12/21 11:49:18;;;;;;;18.63;10.90;;;;;;;;;;5056156;28;20642;-68
2021/12/21 11:51:43;;;;;;;16.37;11.07;;;;;;;;;;5051519;28;20220;-69
2021/12/21 11:54:16;;;;;;;15.97;10.10;;;;;;;;;;5052962;28;20196;-69
2021/12/21 11:56:41;;;;;;;20.03;10.73;;;;;;;;;;5049958;28;20676;-68
2021/12/21 11:59:06;;;;;;;15.07;9.97;;;;;;;;;;5055307;28;20181;-68
2021/12/21 12:01:31;;;;;;;15.70;11.00;;;;;;;;;;5068161;28;20189;-69
2021/12/21 12:03:58;;;;;;;15.37;9.73;;;;;;;;;;5058206;28;20379;-69
2021/12/21 12:06:24;;;;;;;15.73;10.07;;;;;;;;;;5051666;28;20602;-69
2021/12/21 12:08:57;;;;;;;13.67;9.43;;;;;;;;;;5053782;28;20189;-72
2021/12/21 12:11:27;;;;;;;18.87;10.37;;;;;;;;;;5050662;28;20212;-69
2021/12/21 12:14:21;;;;;;;14.10;9.33;;;;;;;;;;5033886;28;20198;-72
2021/12/21 12:16:54;;;;;;;16.77;10.10;;;;;;;;;;5031083;28;20185;-69
2021/12/21 12:19:22;;;;;;;14.10;9.33;;;;;;;;;;5059249;28;20241;-69
2021/12/21 12:21:53;;;;;;;16.70;11.40;;;;;;;;;;5052252;28;20200;-68
2021/12/21 12:24:19;;;;;;;15.90;11.30;;;;;;;;;;5048794;28;20868;-70
2021/12/21 12:26:54;;;;;;;16.70;10.57;;;;;;;;;;5048890;28;20212;-69
2021/12/21 12:29:20;;;;;;;12.60;9.70;;;;;;;;;;5049259;28;20907;-70
2021/12/21 12:32:05;;;;;;;13.13;9.43;;;;;;;;;;5051772;28;20250;-69
2021/12/21 12:34:32;;;;;;;13.80;9.23;;;;;;;;;;5049550;28;20205;-69
2021/12/21 12:36:57;;;;;;;13.23;9.63;;;;;;;;;;5049125;28;20679;-69
2021/12/21 12:39:28;;;;;;;12.93;10.00;;;;;;;;;;5053110;28;20177;-69
2021/12/21 12:41:59;;;;;;;13.47;8.90;;;;;;;;;;5048793;28;20378;-70
2021/12/21 12:44:25;;;;;;;14.40;10.03;;;;;;;;;;5049161;28;20582;-69
2021/12/21 12:46:52;;;;;;;12.57;9.00;;;;;;;;;;5048688;28;20191;-68
2021/12/21 12:49:26;;;;;;;15.47;8.80;;;;;;;;;;5051948;28;20188;-70
2021/12/21 12:52:00;;;;;;;19.77;9.00;;;;;;;;;;5045993;28;20232;-68
2021/12/21 12:54:25;;;;;;;11.80;8.67;;;;;;;;;;5049156;28;20289;-72
2021/12/21 12:56:51;;;;;;;13.10;8.60;;;;;;;;;;5048308;28;20296;-73
2021/12/21 12:59:16;;;;;;;9.57;7.87;;;;;;;;;;5053699;28;20165;-72
2021/12/21 13:01:43;;;;;;;10.33;7.40;;;;;;;;;;5059451;28;20607;-72
2021/12/21 13:04:11;;;;;;;10.50;7.10;;;;;;;;;;5049610;28;20268;-72
2021/12/21 13:06:37;;;;;;;9.13;6.80;;;;;;;;;;5046651;28;20339;-72
2021/12/21 13:09:04;;;;;;;12.70;7.43;;;;;;;;;;5048225;28;20656;-72
2021/12/21 13:11:30;;;;;;;10.43;6.53;;;;;;;;;;5030660;28;20689;-72
2021/12/21 13:13:57;;;;;;;12.67;7.90;;;;;;;;;;5047707;28;20192;-72
2021/12/21 13:16:24;;;;;;;10.77;8.10;;;;;;;;;;5032952;28;20267;-72
2021/12/21 13:18:54;;;;;;;11.43;7.90;;;;;;;;;;5053093;28;20177;-71
2021/12/21 13:21:21;;;;;;;13.00;7.63;;;;;;;;;;5058979;28;20195;-71
2021/12/21 13:23:49;;;;;;;10.27;7.23;;;;;;;;;;5060972;28;20618;-73
2021/12/21 13:26:15;;;;;;;9.63;7.40;;;;;;;;;;5032795;28;20180;-72
2021/12/21 13:28:45;;;;;;;11.60;7.37;;;;;;;;;;5049930;28;22253;-73
2021/12/21 13:31:10;;;;;;;9.37;7.30;;;;;;;;;;5052195;28;20192;-73
2021/12/21 13:33:39;;;;;;;12.27;7.80;;;;;;;;;;5050227;28;20174;-74
2021/12/21 13:36:05;;;;;;;10.57;7.47;;;;;;;;;;5048585;28;20189;-74
2021/12/21 13:38:30;;;;;;;11.30;7.47;;;;;;;;;;5048735;28;20184;-74
2021/12/21 13:41:01;;;;;;;9.93;7.03;;;;;;;;;;5038252;28;20178;-73
2021/12/21 13:43:26;;;;;;;8.93;6.80;;;;;;;;;;5047916;28;20296;-72
2021/12/21 13:45:59;;;;;;;13.27;9.30;;;;;;;;;;5050356;28;20185;-73
2021/12/21 13:48:24;;;;;;;8.63;6.40;;;;;;;;;;5053845;28;20256;-73
2021/12/21 13:50:49;;;;;;;11.90;6.87;;;;;;;;;;5052727;28;20628;-74
2021/12/21 13:53:17;;;;;;;10.30;8.20;;;;;;;;;;5045631;28;20262;-73
2021/12/21 13:55:42;;;;;;;9.00;6.97;;;;;;;;;;5051287;28;20300;-72
2021/12/21 13:58:09;;;;;;;8.07;6.40;;;;;;;;;;5049490;28;20174;-73
2021/12/21 14:00:36;;;;;;;11.33;7.70;;;;;;;;;;5051471;28;20173;-73
2021/12/21 14:03:05;;;;;;;11.90;7.53;;;;;;;;;;5048637;28;20180;-73
2021/12/21 14:05:48;;;;;;;11.73;7.80;;;;;;;;;;5050244;28;20236;-73
2021/12/21 14:08:14;;;;;;;10.70;7.47;;;;;;;;;;5049337;28;20268;-72
2021/12/21 14:11:00;;;;;;;13.17;8.10;;;;;;;;;;5049186;28;20188;-73
2021/12/21 14:13:26;;;;;;;9.10;7.37;;;;;;;;;;5047359;28;20196;-73
2021/12/21 14:15:51;;;;;;;11.03;8.33;;;;;;;;;;5057344;28;20200;-74
2021/12/21 14:18:19;;;;;;;12.73;7.27;;;;;;;;;;5053535;28;20214;-73
2021/12/21 14:20:46;;;;;;;11.00;8.17;;;;;;;;;;5022904;28;20262;-73
2021/12/21 14:23:19;;;;;;;10.57;8.07;;;;;;;;;;5046495;28;20625;-73
2021/12/21 14:25:44;;;;;;;15.37;9.27;;;;;;;;;;5050481;28;20219;-73
2021/12/21 14:28:10;;;;;;;11.13;9.20;;;;;;;;;;5048060;28;20615;-73
2021/12/21 14:30:36;;;;;;;17.53;9.50;;;;;;;;;;5049866;28;20188;-73
2021/12/21 14:33:20;;;;;;;14.13;10.33;;;;;;;;;;5049384;28;20200;-73
2021/12/21 14:35:45;;;;;;;13.33;10.37;;;;;;;;;;5062166;28;20196;-73
2021/12/21 14:38:12;;;;;;;17.57;11.03;;;;;;;;;;5055096;28;20625;-72
2021/12/21 14:40:43;;;;;;;16.07;10.83;;;;;;;;;;5054996;28;20291;-73
2021/12/21 14:43:17;;;;;;;18.63;10.90;;;;;;;;;;5032841;28;21068;-74
2021/12/21 14:45:46;;;;;;;21.43;12.23;;;;;;;;;;5030723;28;20667;-74
2021/12/21 14:48:18;;;;;;;16.97;11.87;;;;;;;;;;5030566;28;20186;-72
2021/12/21 14:50:48;;;;;;;21.60;12.37;;;;;;;;;;5033701;28;20499;-73
2021/12/21 14:53:17;;;;;;;22.73;12.70;;;;;;;;;;5051871;28;20254;-74
2021/12/21 14:55:43;;;;;;;21.77;12.50;;;;;;;;;;5048675;28;20297;-72
2021/12/21 14:58:10;;;;;;;17.63;12.17;;;;;;;;;;5055647;28;20236;-74
2021/12/21 15:00:41;;;;;;;20.83;12.20;;;;;;;;;;5035072;28;20226;-73
2021/12/21 15:03:11;;;;;;;18.50;12.57;;;;;;;;;;5048669;28;20181;-73
2021/12/21 15:05:37;;;;;;;16.63;11.67;;;;;;;;;;5046019;28;20208;-73
2021/12/21 15:08:03;;;;;;;17.07;11.33;;;;;;;;;;5043891;28;20190;-73
2021/12/21 15:10:30;;;;;;;17.53;10.93;;;;;;;;;;5046946;28;20212;-74
2021/12/21 15:12:55;;;;;;;15.80;11.50;;;;;;;;;;5050896;28;20326;-73
2021/12/21 15:15:21;;;;;;;18.53;12.13;;;;;;;;;;5051300;28;20694;-73
2021/12/21 15:17:48;;;;;;;17.67;12.40;;;;;;;;;;5054004;28;20274;-73
2021/12/21 15:20:14;;;;;;;18.53;12.07;;;;;;;;;;5050024;28;20208;-74
2021/12/21 15:22:39;;;;;;;17.97;12.57;;;;;;;;;;5033829;28;20725;-73
2021/12/21 15:25:05;;;;;;;21.37;12.50;;;;;;;;;;5033858;28;20645;-73